Time;durP1;ratioP1;P1;durP2;ratioP2;P2;SDS_P1;SDS_P2;PMS_P1;PMS_P2;Temp;Humidity;BMP_temperature;BMP_pressure;BME280_temperature;BME280_humidity;BME280_pressure;Samples;Min_cycle;Max_cycle;Signal;HPM_P1;HPM_P2
2022/06/28 00:00:56;;;;;;;1.50;0.50;;;;;;;13.45;100.00;102072.34;10535155;28;20052;-75
2022/06/28 00:05:59;;;;;;;1.02;0.70;;;;;;;13.24;100.00;102062.13;10536147;28;20032;-75
2022/06/28 00:11:01;;;;;;;0.63;0.45;;;;;;;13.38;100.00;102064.28;10549266;28;20077;-76
2022/06/28 00:16:06;;;;;;;0.85;0.60;;;;;;;13.29;100.00;102055.38;10540614;28;20294;-75
2022/06/28 00:21:09;;;;;;;0.68;0.50;;;;;;;13.28;100.00;102063.09;10523892;28;20074;-75
2022/06/28 00:26:11;;;;;;;1.17;0.57;;;;;;;13.32;100.00;102054.63;10547067;28;20051;-76
2022/06/28 00:31:13;;;;;;;2.65;0.88;;;;;;;13.37;100.00;102052.16;10541264;28;20047;-75
2022/06/28 00:36:15;;;;;;;1.45;0.90;;;;;;;13.37;100.00;102057.34;10527273;28;20055;-75
2022/06/28 00:41:17;;;;;;;0.85;0.43;;;;;;;13.14;100.00;102050.59;10525632;28;20044;-75
2022/06/28 00:46:19;;;;;;;0.47;0.38;;;;;;;12.99;100.00;102056.09;10522855;28;20145;-75
2022/06/28 00:51:22;;;;;;;0.25;0.25;;;;;;;13.11;100.00;102049.59;10519650;28;20202;-75
2022/06/28 00:56:24;;;;;;;0.55;0.40;;;;;;;13.01;100.00;102059.63;10541368;28;20044;-75
2022/06/28 01:01:29;;;;;;;0.40;0.40;;;;;;;13.10;100.00;102064.25;10525155;28;20055;-75
2022/06/28 01:06:32;;;;;;;1.45;0.38;;;;;;;13.01;100.00;102063.94;10509147;28;20046;-75
2022/06/28 01:11:34;;;;;;;0.93;0.70;;;;;;;12.96;100.00;102074.13;10520979;28;20487;-75
2022/06/28 01:16:37;;;;;;;0.90;0.70;;;;;;;13.06;100.00;102077.03;10528846;28;20036;-75
2022/06/28 01:21:48;;;;;;;0.50;0.50;;;;;;;13.02;100.00;102074.34;10508668;28;20043;-75
2022/06/28 01:26:52;;;;;;;0.68;0.60;;;;;;;13.10;100.00;102078.88;10519021;28;20086;-75
2022/06/28 01:31:54;;;;;;;1.42;0.93;;;;;;;13.13;100.00;102079.00;10539847;28;20482;-75
2022/06/28 01:36:56;;;;;;;0.20;0.20;;;;;;;13.06;100.00;102077.03;10530231;28;20043;-75
2022/06/28 01:42:01;;;;;;;1.05;0.73;;;;;;;12.83;100.00;102080.56;10517126;28;20040;-75
2022/06/28 01:47:06;;;;;;;1.33;0.50;;;;;;;12.72;100.00;102092.25;10517231;28;20048;-75
2022/06/28 01:52:44;;;;;;;1.17;0.20;;;;;;;12.62;100.00;102093.59;10414640;28;20060;-75
2022/06/28 01:58:04;;;;;;;0.43;0.27;;;;;;;12.42;100.00;102089.41;10564043;28;20112;-75
2022/06/28 02:03:11;;;;;;;0.10;0.10;;;;;;;12.21;100.00;102087.78;10550261;28;20433;-75
2022/06/28 02:08:33;;;;;;;0.10;0.10;;;;;;;11.93;100.00;102090.94;10552828;28;20044;-75
2022/06/28 02:13:37;;;;;;;0.15;0.10;;;;;;;11.56;100.00;102105.84;10563752;28;20038;-75
2022/06/28 02:18:39;;;;;;;0.22;0.17;;;;;;;11.48;100.00;102109.81;10529481;28;20043;-75
2022/06/28 02:23:42;;;;;;;0.10;0.10;;;;;;;11.41;100.00;102125.06;10518356;28;20060;-76
2022/06/28 02:28:44;;;;;;;0.25;0.25;;;;;;;11.53;100.00;102116.94;10525610;28;20518;-75
2022/06/28 02:33:46;;;;;;;0.00;0.00;;;;;;;11.13;100.00;102122.13;10545350;28;20399;-76
2022/06/28 02:44:09;;;;;;;0.80;0.43;;;;;;;11.07;100.00;102127.88;10539059;28;20052;-75
2022/06/28 02:49:11;;;;;;;0.10;0.10;;;;;;;11.16;100.00;102137.69;10533768;28;20051;-75
2022/06/28 02:54:12;;;;;;;0.00;0.00;;;;;;;11.07;100.00;102135.63;10534782;28;20097;-75
2022/06/28 02:59:14;;;;;;;0.10;0.10;;;;;;;11.12;100.00;102139.28;10547375;28;20127;-76
2022/06/28 03:04:16;;;;;;;0.10;0.10;;;;;;;11.15;100.00;102143.66;10558360;28;20054;-76
2022/06/28 03:09:18;;;;;;;0.57;0.28;;;;;;;11.04;100.00;102138.94;10546114;28;20050;-74
2022/06/28 03:14:21;;;;;;;0.20;0.10;;;;;;;10.93;100.00;102142.72;10546405;28;20047;-75
2022/06/28 03:19:23;;;;;;;0.03;0.03;;;;;;;10.99;100.00;102145.56;10542221;28;20040;-75
2022/06/28 03:24:24;;;;;;;0.38;0.20;;;;;;;10.78;100.00;102148.97;10560355;28;20105;-75
2022/06/28 03:29:29;;;;;;;0.73;0.30;;;;;;;10.91;100.00;102154.66;10532937;28;20040;-75
2022/06/28 03:34:31;;;;;;;1.50;0.70;;;;;;;10.85;100.00;102156.97;10565167;28;20503;-76
2022/06/28 03:39:33;;;;;;;0.38;0.38;;;;;;;11.07;100.00;102161.41;10545061;28;20089;-75
2022/06/28 03:44:35;;;;;;;1.13;0.43;;;;;;;11.06;100.00;102168.25;10525549;28;20097;-77
2022/06/28 03:49:40;;;;;;;0.10;0.10;;;;;;;10.99;100.00;102168.78;10514632;28;20043;-77
2022/06/28 03:54:49;;;;;;;0.97;0.77;;;;;;;11.20;100.00;102171.44;10533820;28;20379;-78
2022/06/28 04:00:14;;;;;;;0.13;0.13;;;;;;;11.41;100.00;102166.34;10525982;28;20052;-78
2022/06/28 04:05:21;;;;;;;0.55;0.40;;;;;;;11.36;100.00;102180.72;10517240;28;20384;-77
2022/06/28 04:10:23;;;;;;;0.65;0.50;;;;;;;11.69;100.00;102195.03;10527267;28;20067;-78
2022/06/28 04:15:34;;;;;;;0.50;0.17;;;;;;;11.69;100.00;102190.72;10522672;28;20093;-77
2022/06/28 04:20:44;;;;;;;0.60;0.40;;;;;;;11.75;100.00;102196.13;10528863;28;20332;-78
2022/06/28 04:25:47;;;;;;;0.50;0.50;;;;;;;12.01;100.00;102198.97;10521164;28;20068;-78
2022/06/28 04:31:24;;;;;;;1.80;1.25;;;;;;;12.14;100.00;102205.47;10525159;28;20051;-78
2022/06/28 04:36:26;;;;;;;0.82;0.73;;;;;;;12.25;100.00;102203.31;10508897;28;20055;-77
2022/06/28 04:41:28;;;;;;;1.48;1.27;;;;;;;12.41;100.00;102203.94;10522262;28;20410;-77
2022/06/28 04:46:57;;;;;;;1.45;1.05;;;;;;;12.67;100.00;102195.50;10537423;28;20310;-78
2022/06/28 04:52:05;;;;;;;1.08;0.95;;;;;;;12.81;100.00;102198.59;10524579;28;20052;-78
2022/06/28 04:57:10;;;;;;;2.95;1.30;;;;;;;12.95;100.00;102212.03;10549148;28;20040;-77
2022/06/28 05:02:14;;;;;;;10.63;1.95;;;;;;;13.04;100.00;102213.22;10534349;28;20089;-77
2022/06/28 05:07:15;;;;;;;2.25;1.35;;;;;;;13.24;100.00;102212.22;10532186;28;20448;-77
2022/06/28 05:12:36;;;;;;;1.17;0.63;;;;;;;13.45;100.00;102203.47;10523547;28;20364;-78
2022/06/28 05:17:40;;;;;;;1.65;1.55;;;;;;;13.62;100.00;102204.94;10522893;28;20059;-76
2022/06/28 05:22:41;;;;;;;2.35;1.30;;;;;;;13.56;100.00;102204.75;10523418;28;20036;-75
2022/06/28 05:28:03;;;;;;;1.35;0.90;;;;;;;13.75;100.00;102200.19;10541849;28;20238;-75
2022/06/28 05:33:07;;;;;;;0.70;0.70;;;;;;;13.95;100.00;102188.78;10546556;28;20403;-75
2022/06/28 05:38:09;;;;;;;1.27;0.60;;;;;;;14.16;100.00;102192.91;10555260;28;20047;-75
2022/06/28 05:43:12;;;;;;;2.20;1.17;;;;;;;14.31;100.00;102189.03;10523686;28;20048;-75
2022/06/28 05:48:13;;;;;;;0.88;0.75;;;;;;;14.37;100.00;102189.22;10523429;28;20048;-75
2022/06/28 05:53:15;;;;;;;2.50;0.73;;;;;;;14.55;100.00;102188.88;10506355;28;20056;-75
2022/06/28 05:58:16;;;;;;;2.15;1.08;;;;;;;14.80;100.00;102185.34;10523673;28;20044;-75
2022/06/28 06:03:18;;;;;;;1.77;1.38;;;;;;;14.95;100.00;102176.22;10547237;28;20048;-75
2022/06/28 06:08:20;;;;;;;10.15;1.02;;;;;;;14.95;100.00;102178.81;10559458;28;20047;-75
2022/06/28 06:13:23;;;;;;;0.68;0.60;;;;;;;15.16;100.00;102195.00;10541871;28;20414;-75
2022/06/28 06:18:25;;;;;;;2.17;0.75;;;;;;;15.23;100.00;102194.31;10547195;28;20564;-75
2022/06/28 06:24:04;;;;;;;0.47;0.45;;;;;;;15.39;100.00;102197.31;10542322;28;20032;-75
2022/06/28 06:29:25;;;;;;;0.63;0.55;;;;;;;15.41;100.00;102203.44;10541591;28;20051;-76
2022/06/28 06:34:27;;;;;;;0.65;0.60;;;;;;;15.75;100.00;102214.72;10535732;28;20046;-75
2022/06/28 06:39:35;;;;;;;1.45;1.00;;;;;;;15.63;100.00;102217.91;10539962;28;20072;-75
2022/06/28 06:44:37;;;;;;;1.02;0.93;;;;;;;15.79;100.00;102206.16;10524273;28;20065;-76
2022/06/28 06:49:38;;;;;;;2.03;0.75;;;;;;;15.97;100.00;102203.19;10524907;28;20051;-75
2022/06/28 06:54:40;;;;;;;6.95;1.10;;;;;;;16.69;100.00;102197.88;10565751;28;20053;-76
2022/06/28 06:59:42;;;;;;;0.77;0.55;;;;;;;17.11;97.15;102194.41;10557574;28;20050;-75
2022/06/28 07:04:44;;;;;;;3.78;0.80;;;;;;;17.44;99.35;102201.09;10540026;28;20044;-76
2022/06/28 07:09:46;;;;;;;0.60;0.60;;;;;;;18.11;93.58;102193.53;10541523;28;20055;-75
2022/06/28 07:14:48;;;;;;;0.85;0.70;;;;;;;18.02;95.27;102195.13;10537873;28;20227;-75
2022/06/28 07:19:51;;;;;;;1.48;0.45;;;;;;;18.46;95.66;102190.53;10535613;28;20048;-76
2022/06/28 07:24:53;;;;;;;1.20;0.52;;;;;;;18.28;90.89;102196.38;10556444;28;20118;-75
2022/06/28 07:29:55;;;;;;;1.50;0.17;;;;;;;18.51;89.69;102199.31;10548945;28;20138;-75
2022/06/28 07:34:57;;;;;;;0.50;0.43;;;;;;;19.34;86.04;102199.47;10555655;28;20078;-76
2022/06/28 07:46:59;;;;;;;2.92;1.00;;;;;;;20.45;80.45;102183.75;10534577;28;20067;-75
2022/06/28 07:57:21;;;;;;;1.85;0.68;;;;;;;19.39;76.90;102182.09;10562620;28;20043;-75
2022/06/28 08:02:23;;;;;;;0.20;0.20;;;;;;;20.17;74.04;102183.59;10551669;28;20046;-74
2022/06/28 08:07:27;;;;;;;0.35;0.20;;;;;;;19.81;73.72;102179.84;10535904;28;20040;-75
2022/06/28 08:12:32;;;;;;;0.95;0.68;;;;;;;19.81;69.69;102172.84;10544466;28;20513;-74
2022/06/28 08:17:34;;;;;;;0.40;0.28;;;;;;;20.22;71.72;102165.31;10522272;28;20048;-75
2022/06/28 08:22:37;;;;;;;0.05;0.03;;;;;;;19.91;67.38;102171.25;10523404;28;20044;-75
2022/06/28 08:27:40;;;;;;;3.42;2.28;;;;;;;20.59;61.51;102163.75;10524164;28;20036;-75
2022/06/28 08:32:41;;;;;;;0.45;0.40;;;;;;;21.05;60.78;102154.31;10566183;28;20051;-74
2022/06/28 08:37:44;;;;;;;0.38;0.38;;;;;;;20.64;67.28;102153.28;10572228;28;20082;-76
2022/06/28 08:42:53;;;;;;;0.35;0.35;;;;;;;20.43;66.69;102160.19;10570037;28;20099;-75
2022/06/28 08:47:56;;;;;;;0.47;0.32;;;;;;;20.71;64.06;102151.59;10574362;28;20028;-75
2022/06/28 08:53:02;;;;;;;0.15;0.15;;;;;;;21.56;57.14;102150.00;10569411;28;20097;-76
2022/06/28 08:58:10;;;;;;;0.25;0.10;;;;;;;22.41;56.86;102141.16;10554716;28;20040;-75
2022/06/28 09:03:12;;;;;;;0.00;0.00;;;;;;;21.75;58.29;102136.91;10599466;28;20086;-75
2022/06/28 09:08:13;;;;;;;0.10;0.03;;;;;;;20.81;58.42;102139.41;10563946;28;20526;-77
2022/06/28 09:13:37;;;;;;;1.40;0.10;;;;;;;21.73;58.67;102128.16;10584268;28;20140;-75
2022/06/28 09:18:40;;;;;;;0.43;0.08;;;;;;;21.07;56.34;102136.88;10531984;28;20056;-74
2022/06/28 09:23:48;;;;;;;1.58;0.30;;;;;;;21.01;57.51;102123.75;10544596;28;20039;-75
2022/06/28 09:28:52;;;;;;;3.97;0.20;;;;;;;22.12;54.56;102120.22;10586799;28;20070;-76
2022/06/28 09:34:03;;;;;;;0.55;0.20;;;;;;;21.64;58.96;102117.69;10593269;28;20040;-75
2022/06/28 09:39:17;;;;;;;0.10;0.10;;;;;;;22.86;57.26;102112.03;10576185;28;20050;-75
2022/06/28 09:51:26;;;;;;;0.28;0.00;;;;;;;22.25;49.89;102111.44;10577354;28;20036;-76
2022/06/28 09:56:31;;;;;;;0.20;0.10;;;;;;;22.33;49.12;102109.66;10580981;28;20051;-77
2022/06/28 10:02:32;;;;;;;1.40;0.47;;;;;;;22.96;50.48;102099.72;10554290;28;20052;-76
2022/06/28 10:07:35;;;;;;;0.00;0.00;;;;;;;21.70;50.04;102086.22;10571667;28;20048;-75
2022/06/28 10:18:01;;;;;;;0.10;0.10;;;;;;;22.31;48.57;102092.16;10569855;28;20040;-77
2022/06/28 10:23:24;;;;;;;0.30;0.10;;;;;;;23.39;48.14;102083.63;10579543;28;20043;-75
2022/06/28 10:28:27;;;;;;;0.00;0.00;;;;;;;21.99;51.50;102083.53;10547840;28;20049;-76
2022/06/28 10:33:42;;;;;;;0.00;0.00;;;;;;;21.96;49.25;102082.66;10579653;28;20034;-76
2022/06/28 10:39:08;;;;;;;0.15;0.10;;;;;;;22.03;52.79;102080.03;10554857;28;20070;-75
2022/06/28 10:44:12;;;;;;;0.15;0.15;;;;;;;23.69;48.16;102071.06;10555875;28;20515;-75
2022/06/28 10:49:18;;;;;;;0.10;0.05;;;;;;;22.73;45.60;102082.34;10561585;28;20086;-76
2022/06/28 10:54:20;;;;;;;0.00;0.00;;;;;;;22.93;48.12;102066.47;10547544;28;20085;-77
2022/06/28 10:59:37;;;;;;;2.17;0.50;;;;;;;22.44;46.33;102065.00;10568982;28;20097;-77
2022/06/28 11:04:39;;;;;;;0.00;0.00;;;;;;;23.64;47.10;102057.09;10567362;28;20048;-77
2022/06/28 11:09:53;;;;;;;0.00;0.00;;;;;;;22.64;48.45;102061.38;10566923;28;20040;-78
2022/06/28 11:15:00;;;;;;;0.00;0.00;;;;;;;23.19;46.10;102059.28;10562777;28;20052;-77
2022/06/28 11:20:08;;;;;;;0.10;0.10;;;;;;;23.81;43.69;102042.88;10590042;28;20047;-78
2022/06/28 11:25:24;;;;;;;0.10;0.00;;;;;;;24.39;48.19;102036.88;10560505;28;20094;-76
2022/06/28 11:30:28;;;;;;;0.10;0.10;;;;;;;22.81;47.31;102041.13;10549680;28;20461;-78
2022/06/28 11:35:38;;;;;;;0.05;0.05;;;;;;;23.56;47.37;102028.22;10532370;28;20483;-76
2022/06/28 11:40:42;;;;;;;0.15;0.15;;;;;;;24.10;46.14;102028.50;10566039;28;20070;-77
2022/06/28 11:45:51;;;;;;;2.33;0.22;;;;;;;24.08;43.51;102033.81;10542471;28;20055;-77
2022/06/28 11:50:55;;;;;;;0.10;0.00;;;;;;;22.71;46.88;102034.19;10533256;28;20043;-79
2022/06/28 11:56:00;;;;;;;0.00;0.00;;;;;;;22.49;46.58;102028.19;10541507;28;20043;-75
2022/06/28 12:01:04;;;;;;;0.10;0.10;;;;;;;23.63;47.90;102015.91;10546517;28;20079;-77
2022/06/28 12:06:06;;;;;;;0.00;0.00;;;;;;;23.25;49.80;102023.28;10572380;28;20039;-75
2022/06/28 12:11:07;;;;;;;0.00;0.00;;;;;;;22.96;49.59;102021.75;10566623;28;20100;-75
2022/06/28 12:16:13;;;;;;;0.00;0.00;;;;;;;23.05;49.96;102018.16;10572965;28;20089;-75
2022/06/28 12:21:14;;;;;;;0.05;0.05;;;;;;;23.67;46.25;102020.22;10538891;28;20048;-75
2022/06/28 12:26:17;;;;;;;0.00;0.00;;;;;;;24.18;45.50;102024.03;10560076;28;20051;-75
2022/06/28 12:31:19;;;;;;;0.00;0.00;;;;;;;24.11;47.62;102019.72;10547446;28;20040;-76
2022/06/28 12:36:29;;;;;;;0.32;0.30;;;;;;;24.45;41.27;102025.41;10556316;28;20101;-76
2022/06/28 12:41:31;;;;;;;0.00;0.00;;;;;;;24.37;45.06;102022.91;10571590;28;20048;-77
2022/06/28 12:53:01;;;;;;;0.00;0.00;;;;;;;23.99;46.86;102005.84;10541649;28;20040;-77
2022/06/28 12:58:03;;;;;;;0.00;0.00;;;;;;;22.82;50.28;102005.22;10569004;28;20046;-78
2022/06/28 13:03:05;;;;;;;0.88;0.80;;;;;;;;;;10571082;28;20036;-78
2022/06/28 13:08:06;;;;;;;0.00;0.00;;;;;;;24.64;45.00;101998.81;10559771;22;20040;-77
2022/06/28 13:13:08;;;;;;;0.13;0.10;;;;;;;23.80;44.99;101999.03;10507056;28;20052;-76
2022/06/28 13:18:10;;;;;;;0.22;0.08;;;;;;;23.22;45.62;101990.88;10517916;28;20048;-76
2022/06/28 13:23:12;;;;;;;0.03;0.03;;;;;;;22.53;49.11;101989.66;10513990;28;20044;-74
2022/06/28 13:28:14;;;;;;;0.00;0.00;;;;;;;23.22;46.62;101978.63;10510539;28;20162;-76
2022/06/28 13:33:15;;;;;;;0.00;0.00;;;;;;;24.17;46.39;101967.00;10491950;28;20189;-76
2022/06/28 13:38:17;;;;;;;0.00;0.00;;;;;;;23.95;45.56;101959.38;10497523;28;20270;-76
2022/06/28 13:43:34;;;;;;;0.10;0.10;;;;;;;23.86;45.37;101951.59;10477617;28;20135;-77
2022/06/28 13:48:38;;;;;;;0.00;0.00;;;;;;;24.11;45.12;101946.03;10493918;28;20048;-75
2022/06/28 13:53:44;;;;;;;;;;;;;;;24.24;45.08;101943.19;10481102;28;20060;-76
2022/06/28 13:58:47;;;;;;;0.43;0.43;;;;;;;23.28;46.51;101938.25;10472219;28;19987;-76
2022/06/28 14:03:49;;;;;;;0.00;0.00;;;;;;;22.71;49.35;101934.38;10474190;28;20565;-76
2022/06/28 14:08:51;;;;;;;0.03;0.00;;;;;;;23.68;43.76;101929.91;10498869;28;20095;-75
2022/06/28 14:13:55;;;;;;;0.00;0.00;;;;;;;24.10;44.08;101920.59;10497913;28;20491;-75
2022/06/28 14:19:04;;;;;;;0.20;0.15;;;;;;;24.40;41.61;101928.03;10483694;28;20048;-76
2022/06/28 14:24:06;;;;;;;0.08;0.08;;;;;;;24.73;44.89;101918.75;10497851;28;20049;-76
2022/06/28 14:29:07;;;;;;;0.00;0.00;;;;;;;24.15;42.59;101918.78;10497951;28;20044;-76
2022/06/28 14:34:13;;;;;;;0.00;0.00;;;;;;;24.58;42.98;101909.28;10497301;28;20392;-76
2022/06/28 14:39:15;;;;;;;0.00;0.00;;;;;;;24.42;43.44;101903.44;10498418;28;20055;-76
2022/06/28 14:44:17;;;;;;;0.00;0.00;;;;;;;24.46;40.80;101905.13;10489504;28;20442;-76
2022/06/28 14:49:18;;;;;;;2.22;0.50;;;;;;;24.47;40.04;101912.09;10467894;28;20041;-76
2022/06/28 14:54:20;;;;;;;0.00;0.00;;;;;;;24.36;42.50;101888.59;10491867;28;20036;-75
2022/06/28 14:59:21;;;;;;;0.00;0.00;;;;;;;24.11;42.96;101898.63;10487248;28;20518;-76
2022/06/28 15:04:23;;;;;;;0.28;0.22;;;;;;;24.81;42.16;101896.63;10492040;28;20063;-76
2022/06/28 15:09:25;;;;;;;0.30;0.30;;;;;;;24.91;43.31;101886.78;10478195;28;20471;-77
2022/06/28 15:14:27;;;;;;;0.00;0.00;;;;;;;24.83;43.23;101875.53;10495166;28;20115;-77
2022/06/28 15:19:28;;;;;;;0.00;0.00;;;;;;;24.38;41.94;101864.00;10483900;28;20040;-76
2022/06/28 15:35:11;;;;;;;0.00;0.00;;;;;;;23.76;40.71;101859.63;10476937;28;20503;-75
2022/06/28 15:40:13;;;;;;;0.35;0.00;;;;;;;24.04;42.74;101851.34;10470918;28;20090;-76
2022/06/28 15:45:14;;;;;;;0.03;0.03;;;;;;;24.31;39.11;101849.16;10476719;28;20090;-76
2022/06/28 15:50:16;;;;;;;0.90;0.28;;;;;;;23.54;42.72;101845.03;10475947;28;20083;-76
2022/06/28 15:55:18;;;;;;;0.10;0.00;;;;;;;23.84;41.18;101838.44;10486705;28;20040;-76
2022/06/28 16:00:21;;;;;;;0.00;0.00;;;;;;;23.82;47.29;101835.00;10475858;28;20040;-76
2022/06/28 16:05:25;;;;;;;0.00;0.00;;;;;;;23.71;43.10;101832.53;10486917;28;20029;-76
2022/06/28 16:10:29;;;;;;;0.45;0.00;;;;;;;23.37;44.17;101824.22;10495055;28;20048;-76
2022/06/28 16:15:37;;;;;;;0.10;0.00;;;;;;;23.29;42.19;101825.19;10493196;28;20055;-76
2022/06/28 16:20:40;;;;;;;0.35;0.30;;;;;;;23.47;43.09;101817.06;10516322;28;20640;-76
2022/06/28 16:25:41;;;;;;;0.10;0.08;;;;;;;23.57;43.93;101818.66;10523863;28;20041;-76
2022/06/28 16:30:51;;;;;;;0.00;0.00;;;;;;;24.09;43.52;101817.06;10505378;28;20059;-76
2022/06/28 16:35:55;;;;;;;2.83;1.27;;;;;;;23.36;42.01;101815.44;10501587;28;20539;-75
2022/06/28 16:40:56;;;;;;;0.32;0.10;;;;;;;23.92;41.27;101805.00;10485695;28;20044;-76
2022/06/28 16:45:58;;;;;;;0.10;0.10;;;;;;;23.66;40.02;101820.31;10486122;28;20049;-76
2022/06/28 16:51:03;;;;;;;5.78;0.45;;;;;;;23.50;41.43;101811.75;10487024;28;20052;-77
2022/06/28 16:56:07;;;;;;;0.00;0.00;;;;;;;24.11;40.29;101803.88;10467435;28;20059;-74
2022/06/28 17:01:09;;;;;;;0.00;0.00;;;;;;;23.84;39.03;101798.13;10498674;28;20102;-76
2022/06/28 17:07:20;;;;;;;0.03;0.00;;;;;;;24.33;45.83;101789.44;10499835;28;20495;-76
2022/06/28 17:11:32;;;;;;;0.20;0.20;;;;;;;24.31;42.40;101783.31;10498854;28;20056;-76
2022/06/28 17:16:34;;;;;;;0.15;0.05;;;;;;;23.94;42.42;101778.69;10485976;28;20106;-75
2022/06/28 17:21:36;;;;;;;0.00;0.00;;;;;;;24.17;43.84;101778.31;10496889;28;20087;-76
2022/06/28 17:26:38;;;;;;;0.00;0.00;;;;;;;24.03;42.67;101775.91;10481062;28;20044;-75
2022/06/28 17:31:40;;;;;;;0.10;0.00;;;;;;;23.81;39.94;101777.13;10499188;28;20098;-76
2022/06/28 17:36:42;;;;;;;0.00;0.00;;;;;;;23.89;47.45;101772.59;10482472;28;20040;-75
2022/06/28 17:41:43;;;;;;;0.10;0.10;;;;;;;23.84;44.80;101774.44;10487260;28;20132;-75
2022/06/28 17:46:47;;;;;;;0.20;0.08;;;;;;;23.86;48.98;101773.53;10494195;28;20117;-75
2022/06/28 17:51:48;;;;;;;0.00;0.00;;;;;;;23.63;49.20;101776.53;10471376;28;20036;-75
2022/06/28 17:56:51;;;;;;;0.00;0.00;;;;;;;23.47;47.28;101769.75;10480482;28;20049;-76
2022/06/28 18:01:52;;;;;;;0.00;0.00;;;;;;;23.52;45.85;101773.16;10489356;28;20105;-75
2022/06/28 18:06:55;;;;;;;0.57;0.13;;;;;;;23.31;46.80;101779.63;10478766;28;20040;-78
2022/06/28 18:11:56;;;;;;;0.40;0.10;;;;;;;23.19;45.09;101775.38;10487424;28;20041;-76
2022/06/28 18:16:58;;;;;;;0.47;0.47;;;;;;;23.16;48.31;101770.97;10452866;28;20048;-76
2022/06/28 18:22:00;;;;;;;0.00;0.00;;;;;;;22.92;48.47;101769.53;10474906;28;20049;-74
2022/06/28 18:27:02;;;;;;;0.00;0.00;;;;;;;22.89;47.42;101770.44;10480013;28;20044;-75
2022/06/28 18:32:07;;;;;;;0.10;0.10;;;;;;;22.72;47.93;101765.38;10482479;28;20381;-76
2022/06/28 18:37:14;;;;;;;1.85;0.10;;;;;;;22.62;50.60;101764.63;10473803;28;20043;-74
2022/06/28 18:42:15;;;;;;;0.00;0.00;;;;;;;22.60;51.81;101760.28;10492214;28;20041;-75
2022/06/28 18:47:19;;;;;;;0.00;0.00;;;;;;;22.45;50.91;101762.16;10476659;28;20044;-74
2022/06/28 18:52:29;;;;;;;0.00;0.00;;;;;;;22.41;53.39;101760.47;10498179;28;20090;-78
2022/06/28 18:57:31;;;;;;;0.15;0.00;;;;;;;22.22;54.12;101753.63;10502365;28;20036;-75
2022/06/28 19:02:33;;;;;;;0.00;0.00;;;;;;;22.27;53.71;101751.81;10463701;28;20048;-76
2022/06/28 19:07:35;;;;;;;0.00;0.00;;;;;;;21.97;55.39;101740.72;10469384;28;20041;-76
2022/06/28 19:12:40;;;;;;;0.35;0.30;;;;;;;21.87;57.69;101738.16;10474329;28;20045;-76
2022/06/28 19:17:46;;;;;;;0.15;0.15;;;;;;;21.73;57.22;101750.50;10495857;28;20028;-76
2022/06/28 19:22:48;;;;;;;0.00;0.00;;;;;;;21.64;60.40;101745.31;10485186;28;20040;-76
2022/06/28 19:27:51;;;;;;;0.40;0.05;;;;;;;21.38;56.74;101743.72;10475873;28;20052;-75
2022/06/28 19:32:57;;;;;;;0.70;0.10;;;;;;;21.33;60.70;101746.34;10476169;28;20052;-76
2022/06/28 19:37:58;;;;;;;0.00;0.00;;;;;;;21.09;61.24;101747.34;10466848;28;20090;-76
2022/06/28 19:43:00;;;;;;;0.25;0.05;;;;;;;20.97;62.41;101750.00;10489930;28;20426;-76
2022/06/28 19:48:02;;;;;;;0.85;0.15;;;;;;;20.74;63.08;101748.34;10479153;28;20037;-76
2022/06/28 19:53:03;;;;;;;0.20;0.20;;;;;;;20.60;61.64;101746.59;10487383;28;20105;-76
2022/06/28 19:58:06;;;;;;;0.00;0.00;;;;;;;20.27;65.86;101751.03;10502246;28;20049;-76
2022/06/28 20:03:10;;;;;;;0.08;0.08;;;;;;;19.74;73.27;101744.03;10502122;28;20649;-76
2022/06/28 20:08:12;;;;;;;0.22;0.00;;;;;;;19.72;69.74;101750.97;10484236;28;20045;-76
2022/06/28 20:13:13;;;;;;;0.00;0.00;;;;;;;19.45;72.92;101750.06;10502584;28;20045;-75
2022/06/28 20:18:15;;;;;;;0.00;0.00;;;;;;;19.37;71.84;101749.19;10497970;28;20404;-75
2022/06/28 20:23:17;;;;;;;0.00;0.00;;;;;;;19.24;71.67;101740.44;10504340;28;20048;-75
2022/06/28 20:28:18;;;;;;;0.00;0.00;;;;;;;18.96;75.70;101749.03;10499667;28;20040;-76
2022/06/28 20:33:20;;;;;;;0.00;0.00;;;;;;;18.76;79.36;101734.97;10500837;28;20040;-75
2022/06/28 20:38:22;;;;;;;0.00;0.00;;;;;;;18.70;76.83;101741.91;10501209;28;20052;-74
2022/06/28 20:43:24;;;;;;;0.30;0.22;;;;;;;18.71;75.89;101733.22;10483444;28;20067;-74
2022/06/28 20:48:25;;;;;;;0.15;0.13;;;;;;;18.50;76.64;101738.31;10482313;28;20040;-75
2022/06/28 20:53:27;;;;;;;0.00;0.00;;;;;;;18.55;76.44;101732.25;10479402;28;20519;-75
2022/06/28 20:58:30;;;;;;;0.00;0.00;;;;;;;18.45;76.14;101732.19;10490185;28;20040;-75
2022/06/28 21:03:32;;;;;;;0.22;0.22;;;;;;;18.49;75.29;101736.56;10471024;28;20772;-75
2022/06/28 21:08:33;;;;;;;0.32;0.25;;;;;;;18.30;75.45;101731.22;10501158;28;20044;-74
2022/06/28 21:13:36;;;;;;;0.13;0.13;;;;;;;18.38;73.04;101724.31;10479479;28;20060;-74
2022/06/28 21:18:37;;;;;;;0.17;0.10;;;;;;;18.37;74.36;101721.72;10454184;28;20056;-74
2022/06/28 21:23:39;;;;;;;0.03;0.03;;;;;;;18.21;74.89;101725.94;10474054;28;20537;-75
2022/06/28 21:28:41;;;;;;;0.10;0.10;;;;;;;18.03;75.02;101722.34;10485656;28;20033;-75
2022/06/28 21:33:43;;;;;;;0.10;0.10;;;;;;;18.08;74.66;101733.66;10494077;28;20094;-74
2022/06/28 21:38:45;;;;;;;0.03;0.03;;;;;;;17.84;77.02;101726.50;10476762;28;20041;-74
2022/06/28 21:43:50;;;;;;;0.10;0.10;;;;;;;18.00;75.19;101732.72;10473579;28;20568;-74
2022/06/28 21:48:51;;;;;;;0.22;0.20;;;;;;;17.88;75.97;101722.19;10492759;28;20122;-75
2022/06/28 21:53:54;;;;;;;0.25;0.20;;;;;;;17.80;76.09;101729.03;10495944;28;20105;-74
2022/06/28 21:58:56;;;;;;;0.22;0.10;;;;;;;17.70;77.25;101723.75;10493922;28;20052;-74
2022/06/28 22:03:58;;;;;;;0.05;0.05;;;;;;;17.73;75.51;101721.19;10479598;28;20123;-74
2022/06/28 22:08:59;;;;;;;0.17;0.17;;;;;;;17.67;76.09;101725.44;10475391;28;20044;-75
2022/06/28 22:14:04;;;;;;;0.52;0.40;;;;;;;17.60;76.72;101727.13;10479403;28;20052;-74
2022/06/28 22:19:06;;;;;;;0.10;0.10;;;;;;;17.48;76.05;101707.03;10474069;28;20052;-74
2022/06/28 22:24:08;;;;;;;0.10;0.05;;;;;;;17.43;78.12;101722.63;10491384;28;20131;-74
2022/06/28 22:29:10;;;;;;;1.55;0.20;;;;;;;17.57;77.19;101711.47;10476543;28;20045;-75
2022/06/28 22:34:13;;;;;;;0.30;0.20;;;;;;;17.47;76.89;101725.25;10476971;28;20052;-75
2022/06/28 22:39:15;;;;;;;0.17;0.10;;;;;;;17.24;78.01;101713.72;10476527;28;20037;-75
2022/06/28 22:44:17;;;;;;;0.00;0.00;;;;;;;17.39;77.46;101713.00;10494218;28;20384;-74
2022/06/28 22:49:18;;;;;;;0.20;0.20;;;;;;;17.26;78.44;101711.13;10476195;28;20044;-74
2022/06/28 22:54:20;;;;;;;0.57;0.30;;;;;;;17.30;77.83;101705.13;10476400;28;20514;-74
2022/06/28 22:59:22;;;;;;;0.03;0.03;;;;;;;17.16;78.82;101693.69;10494116;28;20590;-74
2022/06/28 23:04:23;;;;;;;0.22;0.22;;;;;;;17.11;79.01;101702.28;10458976;28;20056;-74
2022/06/28 23:09:25;;;;;;;0.80;0.32;;;;;;;16.86;80.23;101697.63;10493842;28;20033;-73
2022/06/28 23:14:26;;;;;;;0.38;0.30;;;;;;;16.68;82.73;101701.72;10494314;28;20036;-74
2022/06/28 23:19:28;;;;;;;0.10;0.00;;;;;;;16.72;82.48;101695.69;10502064;28;20169;-74
2022/06/28 23:24:30;;;;;;;6.65;0.22;;;;;;;16.69;82.52;101677.47;10502254;28;20449;-75
2022/06/28 23:29:33;;;;;;;0.30;0.25;;;;;;;16.70;81.87;101679.22;10464016;28;20044;-75
2022/06/28 23:34:34;;;;;;;0.00;0.00;;;;;;;16.75;81.03;101674.09;10478161;28;20398;-75
2022/06/28 23:39:36;;;;;;;0.20;0.20;;;;;;;16.66;81.64;101672.22;10478451;28;20194;-74
2022/06/28 23:44:38;;;;;;;0.10;0.10;;;;;;;16.51;83.15;101675.50;10495089;28;20048;-74
2022/06/28 23:49:40;;;;;;;0.00;0.00;;;;;;;16.48;82.80;101660.72;10495700;28;20511;-75
